sensor_id;sensor_type;location;lat;lon;timestamp;P1;durP1;ratioP1;P2;durP2;ratioP2
49217;SDS011;35045;51.194;7.268;2022-11-15T00:00:33;14.73;;;9.93;;
49217;SDS011;35045;51.194;7.268;2022-11-15T00:02:59;14.55;;;9.60;;
49217;SDS011;35045;51.194;7.268;2022-11-15T00:05:25;14.73;;;9.65;;
49217;SDS011;35045;51.194;7.268;2022-11-15T00:07:52;13.63;;;9.57;;
49217;SDS011;35045;51.194;7.268;2022-11-15T00:10:20;12.45;;;9.75;;
49217;SDS011;35045;51.194;7.268;2022-11-15T00:12:46;12.90;;;10.18;;
49217;SDS011;35045;51.194;7.268;2022-11-15T00:15:12;17.55;;;10.52;;
49217;SDS011;35045;51.194;7.268;2022-11-15T00:17:38;13.25;;;9.80;;
49217;SDS011;35045;51.194;7.268;2022-11-15T00:20:04;15.40;;;9.85;;
49217;SDS011;35045;51.194;7.268;2022-11-15T00:22:32;16.50;;;9.43;;
49217;SDS011;35045;51.194;7.268;2022-11-15T00:24:58;13.90;;;9.77;;
49217;SDS011;35045;51.194;7.268;2022-11-15T00:27:25;15.38;;;10.10;;
49217;SDS011;35045;51.194;7.268;2022-11-15T00:29:51;18.35;;;10.95;;
49217;SDS011;35045;51.194;7.268;2022-11-15T00:32:18;12.43;;;9.00;;
49217;SDS011;35045;51.194;7.268;2022-11-15T00:34:44;14.93;;;10.57;;
49217;SDS011;35045;51.194;7.268;2022-11-15T00:37:10;13.60;;;9.80;;
49217;SDS011;35045;51.194;7.268;2022-11-15T00:39:36;16.13;;;10.30;;
49217;SDS011;35045;51.194;7.268;2022-11-15T00:42:02;17.15;;;10.82;;
49217;SDS011;35045;51.194;7.268;2022-11-15T00:44:29;13.10;;;10.25;;
49217;SDS011;35045;51.194;7.268;2022-11-15T00:46:55;15.05;;;10.13;;
49217;SDS011;35045;51.194;7.268;2022-11-15T00:49:21;15.57;;;10.00;;
49217;SDS011;35045;51.194;7.268;2022-11-15T00:51:47;15.32;;;10.30;;
49217;SDS011;35045;51.194;7.268;2022-11-15T00:54:13;14.52;;;10.50;;
49217;SDS011;35045;51.194;7.268;2022-11-15T00:56:39;15.45;;;10.18;;
49217;SDS011;35045;51.194;7.268;2022-11-15T00:59:06;14.35;;;9.85;;
49217;SDS011;35045;51.194;7.268;2022-11-15T01:01:32;15.90;;;10.55;;
49217;SDS011;35045;51.194;7.268;2022-11-15T01:03:58;14.60;;;10.23;;
49217;SDS011;35045;51.194;7.268;2022-11-15T01:06:25;15.05;;;10.20;;
49217;SDS011;35045;51.194;7.268;2022-11-15T01:08:51;14.90;;;10.13;;
49217;SDS011;35045;51.194;7.268;2022-11-15T01:11:18;15.10;;;9.93;;
49217;SDS011;35045;51.194;7.268;2022-11-15T01:13:44;14.45;;;10.05;;
49217;SDS011;35045;51.194;7.268;2022-11-15T01:16:12;16.30;;;10.32;;
49217;SDS011;35045;51.194;7.268;2022-11-15T01:18:40;14.50;;;10.35;;
49217;SDS011;35045;51.194;7.268;2022-11-15T01:21:07;15.90;;;10.27;;
49217;SDS011;35045;51.194;7.268;2022-11-15T01:23:35;13.55;;;10.00;;
49217;SDS011;35045;51.194;7.268;2022-11-15T01:26:03;15.48;;;10.57;;
49217;SDS011;35045;51.194;7.268;2022-11-15T01:28:31;15.38;;;10.48;;
49217;SDS011;35045;51.194;7.268;2022-11-15T01:30:59;13.25;;;9.68;;
49217;SDS011;35045;51.194;7.268;2022-11-15T01:33:27;13.85;;;10.65;;
49217;SDS011;35045;51.194;7.268;2022-11-15T01:35:55;14.43;;;9.82;;
49217;SDS011;35045;51.194;7.268;2022-11-15T01:38:22;17.02;;;10.77;;
49217;SDS011;35045;51.194;7.268;2022-11-15T01:40:48;15.82;;;10.98;;
49217;SDS011;35045;51.194;7.268;2022-11-15T01:43:18;18.52;;;11.30;;
49217;SDS011;35045;51.194;7.268;2022-11-15T01:49:02;14.32;;;9.85;;
49217;SDS011;35045;51.194;7.268;2022-11-15T01:51:37;14.88;;;9.63;;
49217;SDS011;35045;51.194;7.268;2022-11-15T01:54:05;14.02;;;9.65;;
49217;SDS011;35045;51.194;7.268;2022-11-15T01:56:36;15.10;;;10.20;;
49217;SDS011;35045;51.194;7.268;2022-11-15T01:59:06;13.70;;;10.38;;
49217;SDS011;35045;51.194;7.268;2022-11-15T02:01:33;14.35;;;10.18;;
49217;SDS011;35045;51.194;7.268;2022-11-15T02:04:02;13.63;;;9.48;;
49217;SDS011;35045;51.194;7.268;2022-11-15T02:06:35;14.90;;;9.75;;
49217;SDS011;35045;51.194;7.268;2022-11-15T02:09:02;13.77;;;9.75;;
49217;SDS011;35045;51.194;7.268;2022-11-15T02:11:28;14.70;;;10.35;;
49217;SDS011;35045;51.194;7.268;2022-11-15T02:13:55;15.43;;;10.38;;
49217;SDS011;35045;51.194;7.268;2022-11-15T02:16:27;16.88;;;10.73;;
49217;SDS011;35045;51.194;7.268;2022-11-15T02:27:27;12.63;;;9.77;;
49217;SDS011;35045;51.194;7.268;2022-11-15T02:30:19;14.57;;;9.82;;
49217;SDS011;35045;51.194;7.268;2022-11-15T02:32:57;13.60;;;9.88;;
49217;SDS011;35045;51.194;7.268;2022-11-15T02:38:38;13.32;;;9.60;;
49217;SDS011;35045;51.194;7.268;2022-11-15T02:41:16;13.80;;;9.27;;
49217;SDS011;35045;51.194;7.268;2022-11-15T02:46:54;12.88;;;8.77;;
49217;SDS011;35045;51.194;7.268;2022-11-15T02:49:46;15.30;;;9.05;;
49217;SDS011;35045;51.194;7.268;2022-11-15T02:52:15;14.02;;;9.20;;
49217;SDS011;35045;51.194;7.268;2022-11-15T02:54:42;14.45;;;9.30;;
49217;SDS011;35045;51.194;7.268;2022-11-15T02:57:18;14.45;;;9.93;;
49217;SDS011;35045;51.194;7.268;2022-11-15T03:00:00;14.27;;;9.10;;
49217;SDS011;35045;51.194;7.268;2022-11-15T03:02:41;14.68;;;9.57;;
49217;SDS011;35045;51.194;7.268;2022-11-15T03:05:24;14.10;;;8.50;;
49217;SDS011;35045;51.194;7.268;2022-11-15T03:10:52;12.48;;;8.40;;
49217;SDS011;35045;51.194;7.268;2022-11-15T03:15:55;15.18;;;8.50;;
49217;SDS011;35045;51.194;7.268;2022-11-15T03:18:33;13.07;;;8.32;;
49217;SDS011;35045;51.194;7.268;2022-11-15T03:21:05;12.05;;;8.05;;
49217;SDS011;35045;51.194;7.268;2022-11-15T03:23:34;12.40;;;8.20;;
49217;SDS011;35045;51.194;7.268;2022-11-15T03:26:03;13.15;;;8.00;;
49217;SDS011;35045;51.194;7.268;2022-11-15T03:28:36;12.77;;;7.50;;
49217;SDS011;35045;51.194;7.268;2022-11-15T03:31:06;11.57;;;8.18;;
49217;SDS011;35045;51.194;7.268;2022-11-15T03:33:53;14.20;;;7.65;;
49217;SDS011;35045;51.194;7.268;2022-11-15T03:36:22;13.55;;;7.38;;
49217;SDS011;35045;51.194;7.268;2022-11-15T03:38:51;11.98;;;7.63;;
49217;SDS011;35045;51.194;7.268;2022-11-15T03:41:41;11.60;;;7.30;;
49217;SDS011;35045;51.194;7.268;2022-11-15T03:44:35;10.55;;;7.18;;
49217;SDS011;35045;51.194;7.268;2022-11-15T03:49:46;11.70;;;7.63;;
49217;SDS011;35045;51.194;7.268;2022-11-15T03:52:18;11.38;;;6.93;;
49217;SDS011;35045;51.194;7.268;2022-11-15T03:54:55;12.02;;;7.18;;
49217;SDS011;35045;51.194;7.268;2022-11-15T03:59:48;12.65;;;7.53;;
49217;SDS011;35045;51.194;7.268;2022-11-15T04:02:14;11.55;;;7.25;;
49217;SDS011;35045;51.194;7.268;2022-11-15T04:04:40;11.98;;;7.75;;
49217;SDS011;35045;51.194;7.268;2022-11-15T04:07:06;12.30;;;7.72;;
49217;SDS011;35045;51.194;7.268;2022-11-15T04:09:32;11.73;;;7.72;;
49217;SDS011;35045;51.194;7.268;2022-11-15T04:11:58;11.05;;;7.70;;
49217;SDS011;35045;51.194;7.268;2022-11-15T04:14:24;13.02;;;7.80;;
49217;SDS011;35045;51.194;7.268;2022-11-15T04:16:51;11.75;;;8.07;;
49217;SDS011;35045;51.194;7.268;2022-11-15T04:19:17;10.05;;;7.68;;
49217;SDS011;35045;51.194;7.268;2022-11-15T04:22:02;11.77;;;8.30;;
49217;SDS011;35045;51.194;7.268;2022-11-15T04:24:47;13.90;;;8.93;;
49217;SDS011;35045;51.194;7.268;2022-11-15T04:27:13;11.32;;;8.40;;
49217;SDS011;35045;51.194;7.268;2022-11-15T04:29:39;12.77;;;8.68;;
49217;SDS011;35045;51.194;7.268;2022-11-15T04:32:06;13.35;;;8.68;;
49217;SDS011;35045;51.194;7.268;2022-11-15T04:34:32;14.50;;;9.02;;
49217;SDS011;35045;51.194;7.268;2022-11-15T04:36:59;11.43;;;8.48;;
49217;SDS011;35045;51.194;7.268;2022-11-15T04:39:37;11.75;;;7.95;;
49217;SDS011;35045;51.194;7.268;2022-11-15T04:42:04;10.98;;;8.40;;
49217;SDS011;35045;51.194;7.268;2022-11-15T04:44:30;12.80;;;9.00;;
49217;SDS011;35045;51.194;7.268;2022-11-15T04:46:56;11.85;;;8.27;;
49217;SDS011;35045;51.194;7.268;2022-11-15T04:49:22;12.25;;;8.85;;
49217;SDS011;35045;51.194;7.268;2022-11-15T04:51:49;10.00;;;7.78;;
49217;SDS011;35045;51.194;7.268;2022-11-15T04:54:15;12.30;;;8.25;;
49217;SDS011;35045;51.194;7.268;2022-11-15T04:56:41;13.57;;;8.48;;
49217;SDS011;35045;51.194;7.268;2022-11-15T04:59:07;10.65;;;8.15;;
49217;SDS011;35045;51.194;7.268;2022-11-15T05:01:33;12.70;;;8.20;;
49217;SDS011;35045;51.194;7.268;2022-11-15T05:04:00;10.90;;;7.30;;
49217;SDS011;35045;51.194;7.268;2022-11-15T05:06:48;10.85;;;8.30;;
49217;SDS011;35045;51.194;7.268;2022-11-15T05:09:15;12.30;;;8.65;;
49217;SDS011;35045;51.194;7.268;2022-11-15T05:11:43;12.02;;;7.82;;
49217;SDS011;35045;51.194;7.268;2022-11-15T05:14:09;11.10;;;8.00;;
49217;SDS011;35045;51.194;7.268;2022-11-15T05:16:35;12.45;;;8.65;;
49217;SDS011;35045;51.194;7.268;2022-11-15T05:19:02;10.13;;;7.63;;
49217;SDS011;35045;51.194;7.268;2022-11-15T05:21:29;10.05;;;6.70;;
49217;SDS011;35045;51.194;7.268;2022-11-15T05:23:55;11.35;;;7.50;;
49217;SDS011;35045;51.194;7.268;2022-11-15T05:26:22;10.52;;;7.70;;
49217;SDS011;35045;51.194;7.268;2022-11-15T05:28:52;12.45;;;7.70;;
49217;SDS011;35045;51.194;7.268;2022-11-15T05:31:22;9.65;;;6.85;;
49217;SDS011;35045;51.194;7.268;2022-11-15T05:33:49;11.25;;;7.38;;
49217;SDS011;35045;51.194;7.268;2022-11-15T05:38:53;10.15;;;6.80;;
49217;SDS011;35045;51.194;7.268;2022-11-15T05:41:21;9.93;;;6.35;;
49217;SDS011;35045;51.194;7.268;2022-11-15T05:43:51;9.27;;;7.07;;
49217;SDS011;35045;51.194;7.268;2022-11-15T05:46:19;8.90;;;6.50;;
49217;SDS011;35045;51.194;7.268;2022-11-15T05:48:46;9.48;;;6.00;;
49217;SDS011;35045;51.194;7.268;2022-11-15T05:51:15;9.25;;;6.05;;
49217;SDS011;35045;51.194;7.268;2022-11-15T05:53:44;9.18;;;6.22;;
49217;SDS011;35045;51.194;7.268;2022-11-15T05:56:12;9.52;;;6.80;;
49217;SDS011;35045;51.194;7.268;2022-11-15T05:58:39;9.73;;;5.90;;
49217;SDS011;35045;51.194;7.268;2022-11-15T06:01:06;9.95;;;5.93;;
49217;SDS011;35045;51.194;7.268;2022-11-15T06:03:32;10.32;;;6.00;;
49217;SDS011;35045;51.194;7.268;2022-11-15T06:05:59;8.75;;;5.85;;
49217;SDS011;35045;51.194;7.268;2022-11-15T06:08:25;9.70;;;6.22;;
49217;SDS011;35045;51.194;7.268;2022-11-15T06:10:51;9.23;;;6.20;;
49217;SDS011;35045;51.194;7.268;2022-11-15T06:13:17;9.32;;;5.95;;
49217;SDS011;35045;51.194;7.268;2022-11-15T06:15:43;9.05;;;5.95;;
49217;SDS011;35045;51.194;7.268;2022-11-15T06:18:09;8.05;;;5.18;;
49217;SDS011;35045;51.194;7.268;2022-11-15T06:20:36;9.82;;;5.60;;
49217;SDS011;35045;51.194;7.268;2022-11-15T06:23:02;6.85;;;4.28;;
49217;SDS011;35045;51.194;7.268;2022-11-15T06:25:30;8.32;;;5.25;;
49217;SDS011;35045;51.194;7.268;2022-11-15T06:27:57;7.40;;;4.88;;
49217;SDS011;35045;51.194;7.268;2022-11-15T06:30:24;9.68;;;4.65;;
49217;SDS011;35045;51.194;7.268;2022-11-15T06:32:51;7.03;;;4.45;;
49217;SDS011;35045;51.194;7.268;2022-11-15T06:35:23;7.60;;;4.18;;
49217;SDS011;35045;51.194;7.268;2022-11-15T06:37:49;6.93;;;4.25;;
49217;SDS011;35045;51.194;7.268;2022-11-15T06:40:15;6.38;;;3.70;;
49217;SDS011;35045;51.194;7.268;2022-11-15T06:42:42;7.35;;;4.25;;
49217;SDS011;35045;51.194;7.268;2022-11-15T06:45:08;7.97;;;3.95;;
49217;SDS011;35045;51.194;7.268;2022-11-15T06:47:34;6.75;;;3.92;;
49217;SDS011;35045;51.194;7.268;2022-11-15T06:50:00;6.80;;;3.88;;
49217;SDS011;35045;51.194;7.268;2022-11-15T06:52:26;7.57;;;4.05;;
49217;SDS011;35045;51.194;7.268;2022-11-15T06:54:57;7.18;;;4.22;;
49217;SDS011;35045;51.194;7.268;2022-11-15T06:57:24;7.78;;;4.63;;
49217;SDS011;35045;51.194;7.268;2022-11-15T06:59:50;7.35;;;4.30;;
49217;SDS011;35045;51.194;7.268;2022-11-15T07:02:16;7.15;;;4.05;;
49217;SDS011;35045;51.194;7.268;2022-11-15T07:04:43;6.88;;;3.90;;
49217;SDS011;35045;51.194;7.268;2022-11-15T07:07:09;6.68;;;4.00;;
49217;SDS011;35045;51.194;7.268;2022-11-15T07:09:35;6.82;;;3.70;;
49217;SDS011;35045;51.194;7.268;2022-11-15T07:12:01;8.27;;;3.65;;
49217;SDS011;35045;51.194;7.268;2022-11-15T07:14:32;9.23;;;3.65;;
49217;SDS011;35045;51.194;7.268;2022-11-15T07:16:58;7.22;;;3.60;;
49217;SDS011;35045;51.194;7.268;2022-11-15T07:19:24;6.88;;;3.53;;
49217;SDS011;35045;51.194;7.268;2022-11-15T07:21:50;7.85;;;3.90;;
49217;SDS011;35045;51.194;7.268;2022-11-15T07:24:16;6.03;;;3.42;;
49217;SDS011;35045;51.194;7.268;2022-11-15T07:26:42;7.22;;;3.70;;
49217;SDS011;35045;51.194;7.268;2022-11-15T07:29:08;7.70;;;3.45;;
49217;SDS011;35045;51.194;7.268;2022-11-15T07:31:35;7.82;;;3.92;;
49217;SDS011;35045;51.194;7.268;2022-11-15T07:34:01;8.30;;;3.88;;
49217;SDS011;35045;51.194;7.268;2022-11-15T07:36:27;6.78;;;3.80;;
49217;SDS011;35045;51.194;7.268;2022-11-15T07:38:53;6.00;;;3.28;;
49217;SDS011;35045;51.194;7.268;2022-11-15T07:41:19;6.05;;;3.50;;
49217;SDS011;35045;51.194;7.268;2022-11-15T07:43:45;6.35;;;3.55;;
49217;SDS011;35045;51.194;7.268;2022-11-15T07:46:11;6.63;;;3.70;;
49217;SDS011;35045;51.194;7.268;2022-11-15T07:48:38;8.40;;;3.85;;
49217;SDS011;35045;51.194;7.268;2022-11-15T07:51:10;8.65;;;3.33;;
49217;SDS011;35045;51.194;7.268;2022-11-15T07:53:39;7.38;;;3.10;;
49217;SDS011;35045;51.194;7.268;2022-11-15T07:56:06;6.25;;;3.05;;
49217;SDS011;35045;51.194;7.268;2022-11-15T07:58:33;6.57;;;3.28;;
49217;SDS011;35045;51.194;7.268;2022-11-15T08:01:02;5.47;;;3.00;;
49217;SDS011;35045;51.194;7.268;2022-11-15T08:03:29;5.95;;;3.03;;
49217;SDS011;35045;51.194;7.268;2022-11-15T08:05:55;5.32;;;2.75;;
49217;SDS011;35045;51.194;7.268;2022-11-15T08:08:22;6.05;;;2.92;;
49217;SDS011;35045;51.194;7.268;2022-11-15T08:10:48;6.88;;;3.03;;
49217;SDS011;35045;51.194;7.268;2022-11-15T08:13:15;5.13;;;2.75;;
49217;SDS011;35045;51.194;7.268;2022-11-15T08:15:42;6.32;;;2.60;;
49217;SDS011;35045;51.194;7.268;2022-11-15T08:18:10;5.03;;;2.33;;
49217;SDS011;35045;51.194;7.268;2022-11-15T08:20:38;5.03;;;2.33;;
49217;SDS011;35045;51.194;7.268;2022-11-15T08:23:05;5.63;;;2.47;;
49217;SDS011;35045;51.194;7.268;2022-11-15T08:25:33;5.60;;;2.72;;
49217;SDS011;35045;51.194;7.268;2022-11-15T08:28:01;6.32;;;2.58;;
49217;SDS011;35045;51.194;7.268;2022-11-15T08:30:34;7.97;;;2.60;;
49217;SDS011;35045;51.194;7.268;2022-11-15T08:33:02;6.28;;;1.92;;
49217;SDS011;35045;51.194;7.268;2022-11-15T08:35:29;5.07;;;2.10;;
49217;SDS011;35045;51.194;7.268;2022-11-15T08:37:55;5.63;;;2.33;;
49217;SDS011;35045;51.194;7.268;2022-11-15T08:40:22;6.13;;;2.10;;
49217;SDS011;35045;51.194;7.268;2022-11-15T08:42:49;5.07;;;2.03;;
49217;SDS011;35045;51.194;7.268;2022-11-15T08:45:15;6.18;;;2.50;;
49217;SDS011;35045;51.194;7.268;2022-11-15T08:47:42;4.35;;;2.00;;
49217;SDS011;35045;51.194;7.268;2022-11-15T08:50:08;7.75;;;2.17;;
49217;SDS011;35045;51.194;7.268;2022-11-15T08:52:34;4.25;;;1.80;;
49217;SDS011;35045;51.194;7.268;2022-11-15T08:55:01;4.63;;;1.80;;
49217;SDS011;35045;51.194;7.268;2022-11-15T08:57:30;5.40;;;2.17;;
49217;SDS011;35045;51.194;7.268;2022-11-15T08:59:56;4.60;;;1.90;;
49217;SDS011;35045;51.194;7.268;2022-11-15T09:02:22;5.50;;;2.22;;
49217;SDS011;35045;51.194;7.268;2022-11-15T09:04:49;5.88;;;1.90;;
49217;SDS011;35045;51.194;7.268;2022-11-15T09:07:15;6.35;;;2.50;;
49217;SDS011;35045;51.194;7.268;2022-11-15T09:09:41;4.70;;;1.70;;
49217;SDS011;35045;51.194;7.268;2022-11-15T09:12:08;7.32;;;2.05;;
49217;SDS011;35045;51.194;7.268;2022-11-15T09:14:34;4.28;;;1.60;;
49217;SDS011;35045;51.194;7.268;2022-11-15T09:17:00;4.20;;;1.50;;
49217;SDS011;35045;51.194;7.268;2022-11-15T09:19:26;5.28;;;1.80;;
49217;SDS011;35045;51.194;7.268;2022-11-15T09:21:53;5.63;;;2.00;;
49217;SDS011;35045;51.194;7.268;2022-11-15T09:24:19;6.32;;;2.25;;
49217;SDS011;35045;51.194;7.268;2022-11-15T09:26:45;4.75;;;2.03;;
49217;SDS011;35045;51.194;7.268;2022-11-15T09:29:11;6.05;;;1.90;;
49217;SDS011;35045;51.194;7.268;2022-11-15T09:31:37;4.75;;;2.00;;
49217;SDS011;35045;51.194;7.268;2022-11-15T09:34:03;6.78;;;1.85;;
49217;SDS011;35045;51.194;7.268;2022-11-15T09:36:30;4.55;;;1.88;;
49217;SDS011;35045;51.194;7.268;2022-11-15T09:38:59;4.90;;;1.85;;
49217;SDS011;35045;51.194;7.268;2022-11-15T09:41:30;5.90;;;2.08;;
49217;SDS011;35045;51.194;7.268;2022-11-15T09:52:13;4.68;;;1.52;;
49217;SDS011;35045;51.194;7.268;2022-11-15T09:54:41;4.25;;;1.65;;
49217;SDS011;35045;51.194;7.268;2022-11-15T10:00:20;5.07;;;1.75;;
49217;SDS011;35045;51.194;7.268;2022-11-15T10:03:11;4.47;;;1.38;;
49217;SDS011;35045;51.194;7.268;2022-11-15T10:05:41;6.57;;;1.77;;
49217;SDS011;35045;51.194;7.268;2022-11-15T10:08:25;3.47;;;1.55;;
49217;SDS011;35045;51.194;7.268;2022-11-15T10:11:03;4.63;;;1.58;;
49217;SDS011;35045;51.194;7.268;2022-11-15T10:13:55;3.42;;;1.50;;
49217;SDS011;35045;51.194;7.268;2022-11-15T10:24:42;4.45;;;1.50;;
49217;SDS011;35045;51.194;7.268;2022-11-15T10:27:14;3.75;;;1.50;;
49217;SDS011;35045;51.194;7.268;2022-11-15T10:29:42;3.28;;;1.50;;
49217;SDS011;35045;51.194;7.268;2022-11-15T10:32:11;4.80;;;1.60;;
49217;SDS011;35045;51.194;7.268;2022-11-15T10:34:38;3.97;;;1.70;;
49217;SDS011;35045;51.194;7.268;2022-11-15T10:37:04;3.67;;;1.20;;
49217;SDS011;35045;51.194;7.268;2022-11-15T10:39:30;4.85;;;1.70;;
49217;SDS011;35045;51.194;7.268;2022-11-15T10:42:14;3.47;;;1.23;;
49217;SDS011;35045;51.194;7.268;2022-11-15T10:44:43;4.15;;;1.52;;
49217;SDS011;35045;51.194;7.268;2022-11-15T10:49:55;3.72;;;1.27;;
49217;SDS011;35045;51.194;7.268;2022-11-15T10:52:34;4.80;;;1.60;;
49217;SDS011;35045;51.194;7.268;2022-11-15T10:57:37;2.90;;;1.10;;
49217;SDS011;35045;51.194;7.268;2022-11-15T11:00:48;3.95;;;1.33;;
49217;SDS011;35045;51.194;7.268;2022-11-15T11:03:04;2.55;;;1.10;;
49217;SDS011;35045;51.194;7.268;2022-11-15T11:06:13;5.77;;;1.20;;
49217;SDS011;35045;51.194;7.268;2022-11-15T11:09:03;2.50;;;1.00;;
49217;SDS011;35045;51.194;7.268;2022-11-15T11:11:49;4.88;;;1.00;;
49217;SDS011;35045;51.194;7.268;2022-11-15T11:14:20;3.83;;;1.38;;
49217;SDS011;35045;51.194;7.268;2022-11-15T11:16:49;2.70;;;1.00;;
49217;SDS011;35045;51.194;7.268;2022-11-15T11:19:39;3.33;;;0.90;;
49217;SDS011;35045;51.194;7.268;2022-11-15T11:22:22;4.43;;;1.17;;
49217;SDS011;35045;51.194;7.268;2022-11-15T11:25:08;2.92;;;1.10;;
49217;SDS011;35045;51.194;7.268;2022-11-15T11:33:22;4.60;;;1.15;;
49217;SDS011;35045;51.194;7.268;2022-11-15T11:41:27;2.47;;;1.00;;
49217;SDS011;35045;51.194;7.268;2022-11-15T11:52:06;2.72;;;1.00;;
49217;SDS011;35045;51.194;7.268;2022-11-15T11:54:55;3.78;;;1.25;;
49217;SDS011;35045;51.194;7.268;2022-11-15T12:00:31;3.90;;;1.02;;
49217;SDS011;35045;51.194;7.268;2022-11-15T12:03:07;3.17;;;1.00;;
49217;SDS011;35045;51.194;7.268;2022-11-15T12:05:46;4.82;;;1.30;;
49217;SDS011;35045;51.194;7.268;2022-11-15T12:08:23;3.60;;;0.90;;
49217;SDS011;35045;51.194;7.268;2022-11-15T12:11:43;3.17;;;1.00;;
49217;SDS011;35045;51.194;7.268;2022-11-15T12:14:42;2.45;;;0.80;;
49217;SDS011;35045;51.194;7.268;2022-11-15T12:17:38;3.05;;;1.15;;
49217;SDS011;35045;51.194;7.268;2022-11-15T12:20:14;3.65;;;1.00;;
49217;SDS011;35045;51.194;7.268;2022-11-15T12:22:42;4.43;;;1.15;;
49217;SDS011;35045;51.194;7.268;2022-11-15T12:28:13;4.20;;;0.90;;
49217;SDS011;35045;51.194;7.268;2022-11-15T12:30:46;2.88;;;0.90;;
49217;SDS011;35045;51.194;7.268;2022-11-15T12:33:28;5.22;;;1.15;;
49217;SDS011;35045;51.194;7.268;2022-11-15T12:36:05;1.55;;;0.70;;
49217;SDS011;35045;51.194;7.268;2022-11-15T12:41:20;3.67;;;1.00;;
49217;SDS011;35045;51.194;7.268;2022-11-15T12:43:49;4.50;;;1.23;;
49217;SDS011;35045;51.194;7.268;2022-11-15T13:17:48;6.38;;;1.30;;
49217;SDS011;35045;51.194;7.268;2022-11-15T13:22:46;4.43;;;1.10;;
49217;SDS011;35045;51.194;7.268;2022-11-15T13:27:50;5.18;;;1.20;;
49217;SDS011;35045;51.194;7.268;2022-11-15T13:30:21;5.80;;;1.20;;
49217;SDS011;35045;51.194;7.268;2022-11-15T13:32:50;4.10;;;1.13;;
49217;SDS011;35045;51.194;7.268;2022-11-15T13:35:21;3.58;;;1.20;;
49217;SDS011;35045;51.194;7.268;2022-11-15T13:37:49;4.45;;;1.30;;
49217;SDS011;35045;51.194;7.268;2022-11-15T13:40:25;4.20;;;1.20;;
49217;SDS011;35045;51.194;7.268;2022-11-15T13:42:56;4.72;;;1.60;;
49217;SDS011;35045;51.194;7.268;2022-11-15T13:45:23;4.47;;;1.40;;
49217;SDS011;35045;51.194;7.268;2022-11-15T13:47:51;5.68;;;2.05;;
49217;SDS011;35045;51.194;7.268;2022-11-15T13:50:20;6.95;;;1.75;;
49217;SDS011;35045;51.194;7.268;2022-11-15T13:52:50;7.57;;;2.17;;
49217;SDS011;35045;51.194;7.268;2022-11-15T13:55:18;5.93;;;2.00;;
49217;SDS011;35045;51.194;7.268;2022-11-15T14:03:05;5.10;;;1.90;;
49217;SDS011;35045;51.194;7.268;2022-11-15T14:05:33;5.57;;;1.90;;
49217;SDS011;35045;51.194;7.268;2022-11-15T14:08:04;4.63;;;1.85;;
49217;SDS011;35045;51.194;7.268;2022-11-15T14:10:38;5.78;;;1.90;;
49217;SDS011;35045;51.194;7.268;2022-11-15T14:13:10;5.40;;;2.08;;
49217;SDS011;35045;51.194;7.268;2022-11-15T14:15:53;6.53;;;2.08;;
49217;SDS011;35045;51.194;7.268;2022-11-15T14:21:07;5.07;;;2.13;;
49217;SDS011;35045;51.194;7.268;2022-11-15T14:23:34;6.13;;;1.92;;
49217;SDS011;35045;51.194;7.268;2022-11-15T14:26:00;5.25;;;1.85;;
49217;SDS011;35045;51.194;7.268;2022-11-15T14:30:53;8.95;;;1.95;;
49217;SDS011;35045;51.194;7.268;2022-11-15T14:33:28;4.53;;;1.55;;
49217;SDS011;35045;51.194;7.268;2022-11-15T14:35:58;5.57;;;1.88;;
49217;SDS011;35045;51.194;7.268;2022-11-15T14:38:51;5.30;;;2.00;;
49217;SDS011;35045;51.194;7.268;2022-11-15T14:43:45;6.95;;;1.92;;
49217;SDS011;35045;51.194;7.268;2022-11-15T14:46:12;4.18;;;1.90;;
49217;SDS011;35045;51.194;7.268;2022-11-15T14:48:38;5.38;;;2.10;;
49217;SDS011;35045;51.194;7.268;2022-11-15T14:51:09;4.68;;;1.80;;
49217;SDS011;35045;51.194;7.268;2022-11-15T14:53:40;5.43;;;2.10;;
49217;SDS011;35045;51.194;7.268;2022-11-15T14:56:07;4.53;;;1.83;;
49217;SDS011;35045;51.194;7.268;2022-11-15T14:58:33;4.13;;;1.77;;
49217;SDS011;35045;51.194;7.268;2022-11-15T15:00:59;5.35;;;2.00;;
49217;SDS011;35045;51.194;7.268;2022-11-15T15:03:28;5.28;;;1.90;;
49217;SDS011;35045;51.194;7.268;2022-11-15T15:05:54;4.13;;;1.70;;
49217;SDS011;35045;51.194;7.268;2022-11-15T15:08:21;4.85;;;2.05;;
49217;SDS011;35045;51.194;7.268;2022-11-15T15:10:48;4.85;;;1.80;;
49217;SDS011;35045;51.194;7.268;2022-11-15T15:13:18;5.32;;;2.15;;
49217;SDS011;35045;51.194;7.268;2022-11-15T15:15:50;5.63;;;2.05;;
49217;SDS011;35045;51.194;7.268;2022-11-15T15:18:17;6.82;;;2.33;;
49217;SDS011;35045;51.194;7.268;2022-11-15T15:20:44;7.22;;;2.33;;
49217;SDS011;35045;51.194;7.268;2022-11-15T15:23:14;6.88;;;2.55;;
49217;SDS011;35045;51.194;7.268;2022-11-15T15:25:45;5.35;;;2.20;;
49217;SDS011;35045;51.194;7.268;2022-11-15T15:28:13;6.57;;;2.05;;
49217;SDS011;35045;51.194;7.268;2022-11-15T15:30:39;5.97;;;2.05;;
49217;SDS011;35045;51.194;7.268;2022-11-15T15:33:06;6.68;;;2.50;;
49217;SDS011;35045;51.194;7.268;2022-11-15T15:35:33;5.90;;;2.30;;
49217;SDS011;35045;51.194;7.268;2022-11-15T15:38:00;7.30;;;2.30;;
49217;SDS011;35045;51.194;7.268;2022-11-15T15:40:27;5.85;;;2.55;;
49217;SDS011;35045;51.194;7.268;2022-11-15T15:42:54;4.07;;;1.90;;
49217;SDS011;35045;51.194;7.268;2022-11-15T15:45:20;6.85;;;2.35;;
49217;SDS011;35045;51.194;7.268;2022-11-15T15:47:47;6.75;;;2.17;;
49217;SDS011;35045;51.194;7.268;2022-11-15T15:52:47;5.03;;;2.05;;
49217;SDS011;35045;51.194;7.268;2022-11-15T15:55:14;6.10;;;2.25;;
49217;SDS011;35045;51.194;7.268;2022-11-15T15:57:41;6.00;;;2.00;;
49217;SDS011;35045;51.194;7.268;2022-11-15T16:00:08;5.40;;;2.00;;
49217;SDS011;35045;51.194;7.268;2022-11-15T16:02:35;5.47;;;2.10;;
49217;SDS011;35045;51.194;7.268;2022-11-15T16:05:05;5.32;;;1.92;;
49217;SDS011;35045;51.194;7.268;2022-11-15T16:07:31;4.97;;;2.03;;
49217;SDS011;35045;51.194;7.268;2022-11-15T16:09:57;7.18;;;2.30;;
49217;SDS011;35045;51.194;7.268;2022-11-15T16:12:30;4.22;;;2.00;;
49217;SDS011;35045;51.194;7.268;2022-11-15T16:15:00;4.65;;;2.05;;
49217;SDS011;35045;51.194;7.268;2022-11-15T16:17:31;5.63;;;1.90;;
49217;SDS011;35045;51.194;7.268;2022-11-15T16:20:00;6.80;;;1.98;;
49217;SDS011;35045;51.194;7.268;2022-11-15T16:22:27;4.20;;;1.60;;
49217;SDS011;35045;51.194;7.268;2022-11-15T16:24:54;6.10;;;2.03;;
49217;SDS011;35045;51.194;7.268;2022-11-15T16:27:21;6.53;;;1.90;;
49217;SDS011;35045;51.194;7.268;2022-11-15T16:29:48;6.47;;;2.28;;
49217;SDS011;35045;51.194;7.268;2022-11-15T16:32:15;8.70;;;3.33;;
49217;SDS011;35045;51.194;7.268;2022-11-15T16:34:41;6.78;;;3.30;;
49217;SDS011;35045;51.194;7.268;2022-11-15T16:37:19;13.23;;;8.82;;
49217;SDS011;35045;51.194;7.268;2022-11-15T16:39:48;6.95;;;2.90;;
49217;SDS011;35045;51.194;7.268;2022-11-15T16:42:14;7.03;;;2.17;;
49217;SDS011;35045;51.194;7.268;2022-11-15T16:44:41;5.13;;;2.63;;
49217;SDS011;35045;51.194;7.268;2022-11-15T16:47:15;7.38;;;4.93;;
49217;SDS011;35045;51.194;7.268;2022-11-15T16:49:43;6.95;;;4.30;;
49217;SDS011;35045;51.194;7.268;2022-11-15T16:52:10;6.60;;;3.42;;
49217;SDS011;35045;51.194;7.268;2022-11-15T16:54:36;6.93;;;3.88;;
49217;SDS011;35045;51.194;7.268;2022-11-15T16:57:02;11.05;;;7.68;;
49217;SDS011;35045;51.194;7.268;2022-11-15T16:59:28;6.15;;;3.25;;
49217;SDS011;35045;51.194;7.268;2022-11-15T17:02:01;5.47;;;2.55;;
49217;SDS011;35045;51.194;7.268;2022-11-15T17:04:27;8.23;;;2.83;;
49217;SDS011;35045;51.194;7.268;2022-11-15T17:06:58;8.30;;;4.13;;
49217;SDS011;35045;51.194;7.268;2022-11-15T17:09:24;7.75;;;4.60;;
49217;SDS011;35045;51.194;7.268;2022-11-15T17:11:51;6.68;;;3.80;;